Aérodrome :
LOGIN :

S'inscrire | Disclaimer

   EN    FR    IT 

 










Légende :    VFR   VFR Marginal   IFR   IFR Intensif   IFR Très Intensif
Visi : 
Plafond : 
>= 8 km
>= 3000ft
5 à 8 km
1000 à 3000 ft
1500m à 5 km
500 à 1000 ft
800 à 1500m
200 à 500 ft
< 800m
< 200 ft
Symboles :   Orages  Brouillard  Fortes neiges  Fortes précipitations  Vent > 20 kt
SIGMETs :   Divers  Orages  Givrage  Turbulence  Onde Orograph.  Cendres Volcan.






- Altitude de l'aérodrome : 268 ft
- Code IATA : BFS


EGAA - Belfast Aldergrove

DERNIER METAR :
  • 211120Z 21008KT 180V240 9999 BKN006 BKN010 BKN019 12/11 Q1017

METARs EXPIRÉS :
  • 211050Z 21006KT 180V240 9999 SCT007 SCT010 BKN018 13/12 Q1017
  • 211020Z 23005KT 180V280 9999 SCT005 BKN008 BKN014 12/12 Q1017
  • 210950Z 25008KT 7000 BKN003 BKN007 11/11 Q1017
  • 210920Z 25006KT 6000 BKN002 BKN006 11/10 Q1018
  • 210850Z 25008KT 4200 BR BKN001 11/10 Q1018

TAF TAF EGAA
Valide du 21 à 12h jusqu'au 22 à 12h UTC


211100Z 2112/2212 23008KT 9999 BKN022
PROB30
TEMPO 2112/2114 BKN014
PROB40
TEMPO 2118/2124 BKN012
BECMG 2200/2204 SCT007 BKN012
PROB30
TEMPO 2204/2209 6000 -DZ BKN004
BECMG 2209/2212 20015G25KT FEW012 SCT025



MET'MAP, la Météo Aéronautique d'un coup d'oeil ! - Copyright ORBIFLY Décembre 2007 - Disclaimer

ORBIFLY MET'MAP TEAM :

Programmation & Développement : Alexandra Zaïnal
Sur une idée originale de : Baudouin d'Aumeries
Assistance à la programmation : Marc-Olivier Méhu
Soutien technique & logistique : Manuel Goepfert

Contact : metmap@orbifly.com




SOURCES & CREDITS :

   NOAA